Aitkin, Minnesota
Current Conditions -  °F | °C
As of 2:53 PM on Sunday 21 Dec 2014 (Local Time) from KAIT Reporting Station
Haze Haze  
Wind Chill: -2°   Ceiling: 400
Heat Index:   Visibility: 1mi
Dew Point: -1°   Wind: 9mph
Humidity: 81%   Direction: 160°SSE
Pressure: 29.69"   Gusts: NA
Location:  46.53°N, 93.71°W
Report Text: KAIT 212053Z AUTO 16008KT 1SM HZ OVC004 02/M01 A2969 RMK AO2
Loading
Personal Weather Stations






























Interactive Weather Map New forecast layout! Learn more

10-Day Weather Forecast

Advertisements
Track Severe Weather on mobile